PWSweather.com
Personal Weather Stations
Station Observations
CW6488
River Forest, Covington, LA 70433

River ForestCovington, LA 70433

Lat: 30.4876, Lon: -90.1406

Elevation: 32

Station Type: WMR968

Latest ConditionsUpdated 4:20:07 AM CST Tuesday, Nov 12, 2019
Currently Today's Max Today's Min Today's Average
Temperature 43.5°F6.4°C 67.7°F19.8°C 43.5°F6.4°C 52.0°F11.1°C
Dew Point 39.9°F4.4°C 65.3°F18.5°C 39.9°F4.4°C 48.6°F9.2°C
Winds 8.0 mph W12.9 kmh W 8.0 mph -12.9 kmh - - 2.0 mph 3.2 kmh
Wind Gusts 3.0 mph4.8 kmh 3.0 mph4.8 kmh - -
Humidity 87% 92% 80% 88%
Pressure 30.13 in1020.3 mb 30.13 in1020.3 mb 29.98 in1015.2 mb -
Hour Temp Dew Point Humidity Winds Wind Gusts Pressure Precip Precip Rate Daily Precip Total
04:20 AM 43.5°F6.4°C 39.9°F4.4°C 87% 8.0 mph W12.9 kmh W 3.0 mph4.8 kmh 30.13 in1020.3 mb 0.00 in0.0 mm 0.00 in0.0 mm 0.02 in0.5 mm
04:10 AM 44.3°F6.8°C 41.0°F5.0°C 88% 3.0 mph N4.8 kmh N 3.0 mph4.8 kmh 30.13 in1020.3 mb 0.00 in0.0 mm 0.00 in0.0 mm 0.02 in0.5 mm
04:00 AM 45.0°F7.2°C 42.0°F5.6°C 89% 1.0 mph N1.6 kmh N 3.0 mph4.8 kmh 30.13 in1020.3 mb 0.00 in0.0 mm 0.00 in0.0 mm 0.02 in0.5 mm
03:50 AM 45.4°F7.4°C 42.6°F5.9°C 90% 1.0 mph N1.6 kmh N 3.0 mph4.8 kmh 30.12 in1020.0 mb 0.00 in0.0 mm 0.00 in0.0 mm 0.02 in0.5 mm
03:40 AM 45.6°F7.6°C 42.6°F5.9°C 89% 1.0 mph N1.6 kmh N 3.0 mph4.8 kmh 30.12 in1020.0 mb 0.00 in0.0 mm 0.00 in0.0 mm 0.02 in0.5 mm
03:30 AM 45.9°F7.7°C 42.9°F6.1°C 89% 2.0 mph NNW3.2 kmh NNW 3.0 mph4.8 kmh 30.10 in1019.3 mb 0.00 in0.0 mm 0.00 in0.0 mm 0.02 in0.5 mm
03:20 AM 46.3°F7.9°C 43.2°F6.2°C 89% 1.0 mph N1.6 kmh N 3.0 mph4.8 kmh 30.10 in1019.3 mb 0.00 in0.0 mm 0.00 in0.0 mm 0.02 in0.5 mm
03:10 AM 46.7°F8.2°C 44.2°F6.8°C 91% 3.0 mph NNW4.8 kmh NNW 3.0 mph4.8 kmh 30.09 in1019.0 mb 0.00 in0.0 mm 0.00 in0.0 mm 0.02 in0.5 mm
03:00 AM 47.0°F8.3°C 44.5°F6.9°C 91% 1.0 mph N1.6 kmh N 3.0 mph4.8 kmh 30.09 in1019.0 mb 0.01 in0.3 mm 0.00 in0.0 mm 0.02 in0.5 mm
02:50 AM 47.4°F8.6°C 44.6°F7.0°C 90% 2.0 mph N3.2 kmh N 3.0 mph4.8 kmh 30.09 in1019.0 mb 0.01 in0.3 mm 0.00 in0.0 mm 0.02 in0.5 mm
02:40 AM 47.9°F8.8°C 45.1°F7.3°C 90% 1.0 mph N1.6 kmh N 3.0 mph4.8 kmh 30.08 in1018.6 mb 0.01 in0.3 mm 0.00 in0.0 mm 0.02 in0.5 mm
02:30 AM 48.1°F8.9°C 45.3°F7.4°C 90% 2.0 mph N3.2 kmh N 3.0 mph4.8 kmh 30.08 in1018.6 mb 0.02 in0.5 mm 0.00 in0.0 mm 0.02 in0.5 mm
02:20 AM 48.6°F9.2°C 45.8°F7.7°C 90% 1.0 mph N1.6 kmh N 3.0 mph4.8 kmh 30.08 in1018.6 mb 0.02 in0.5 mm 0.00 in0.0 mm 0.02 in0.5 mm
02:10 AM 49.1°F9.5°C 46.3°F7.9°C 90% Calm Calm 3.0 mph4.8 kmh 30.07 in1018.3 mb 0.02 in0.5 mm 0.06 in1.5 mm 0.02 in0.5 mm
02:00 AM 49.9°F9.9°C 46.8°F8.2°C 89% 2.0 mph NW3.2 kmh NW 3.0 mph4.8 kmh 30.07 in1018.3 mb 0.01 in0.3 mm 0.00 in0.0 mm 0.01 in0.3 mm
01:50 AM 51.0°F10.6°C 47.9°F8.8°C 89% 1.0 mph NNW1.6 kmh NNW 3.0 mph4.8 kmh 30.07 in1018.3 mb 0.01 in0.3 mm 0.00 in0.0 mm 0.01 in0.3 mm
01:40 AM 52.2°F11.2°C 49.1°F9.5°C 89% 3.0 mph N4.8 kmh N 3.0 mph4.8 kmh 30.07 in1018.3 mb 0.01 in0.3 mm 0.00 in0.0 mm 0.01 in0.3 mm
01:30 AM 53.3°F11.8°C 49.8°F9.9°C 88% 4.0 mph N6.4 kmh N 3.0 mph4.8 kmh 30.07 in1018.3 mb 0.01 in0.3 mm 0.06 in1.5 mm 0.01 in0.3 mm
01:20 AM 54.3°F12.4°C 50.5°F10.3°C 87% 2.0 mph NNW3.2 kmh NNW 3.0 mph4.8 kmh 30.06 in1017.9 mb 0.00 in0.0 mm 0.00 in0.0 mm 0.00 in0.0 mm
01:10 AM 55.0°F12.8°C 50.9°F10.5°C 86% 1.0 mph N1.6 kmh N 3.0 mph4.8 kmh 30.05 in1017.6 mb 0.00 in0.0 mm 0.00 in0.0 mm 0.00 in0.0 mm
01:00 AM 56.0°F13.3°C 51.9°F11.1°C 86% 4.0 mph N6.4 kmh N 3.0 mph4.8 kmh 30.04 in1017.3 mb 0.00 in0.0 mm 0.00 in0.0 mm 0.00 in0.0 mm
12:50 AM 57.1°F13.9°C 52.3°F11.3°C 84% 3.0 mph NNW4.8 kmh NNW 3.0 mph4.8 kmh 30.03 in1016.9 mb 0.00 in0.0 mm 0.00 in0.0 mm 0.00 in0.0 mm
12:40 AM 59.3°F15.2°C 53.8°F12.1°C 82% 4.0 mph N6.4 kmh N 3.0 mph4.8 kmh 30.03 in1016.9 mb 0.00 in0.0 mm 0.00 in0.0 mm 0.00 in0.0 mm
12:30 AM 63.0°F17.2°C 56.7°F13.7°C 80% 1.0 mph NNW1.6 kmh NNW 3.0 mph4.8 kmh 30.02 in1016.6 mb 0.00 in0.0 mm 0.00 in0.0 mm 0.00 in0.0 mm
12:20 AM 66.5°F19.2°C 62.8°F17.1°C 88% 3.0 mph NNW4.8 kmh NNW 3.0 mph4.8 kmh 30.01 in1016.3 mb 0.00 in0.0 mm 0.00 in0.0 mm 0.00 in0.0 mm
12:10 AM 67.6°F19.8°C 65.2°F18.4°C 92% Calm Calm 3.0 mph4.8 kmh 29.98 in1015.2 mb 0.00 in0.0 mm 0.00 in0.0 mm 0.00 in0.0 mm
12:00 AM 67.7°F19.8°C 65.3°F18.5°C 92% Calm Calm 3.0 mph4.8 kmh 29.98 in1015.2 mb 0.00 in0.0 mm 0.00 in0.0 mm 0.00 in0.0 mm